sensor_id;sensor_type;location;lat;lon;timestamp;P1;durP1;ratioP1;P2;durP2;ratioP2
47960;SDS011;33721;48.852;9.936;2022-08-18T00:02:11;21.50;;;14.52;;
47960;SDS011;33721;48.852;9.936;2022-08-18T00:04:39;22.27;;;13.93;;
47960;SDS011;33721;48.852;9.936;2022-08-18T00:07:07;22.13;;;13.50;;
47960;SDS011;33721;48.852;9.936;2022-08-18T00:09:35;18.92;;;13.13;;
47960;SDS011;33721;48.852;9.936;2022-08-18T00:12:03;21.38;;;13.32;;
47960;SDS011;33721;48.852;9.936;2022-08-18T00:14:31;22.80;;;14.07;;
47960;SDS011;33721;48.852;9.936;2022-08-18T00:16:57;24.92;;;13.30;;
47960;SDS011;33721;48.852;9.936;2022-08-18T00:19:23;23.40;;;13.82;;
47960;SDS011;33721;48.852;9.936;2022-08-18T00:21:49;22.77;;;13.85;;
47960;SDS011;33721;48.852;9.936;2022-08-18T00:24:15;18.77;;;13.48;;
47960;SDS011;33721;48.852;9.936;2022-08-18T00:26:41;20.42;;;13.63;;
47960;SDS011;33721;48.852;9.936;2022-08-18T00:29:07;20.67;;;13.05;;
47960;SDS011;33721;48.852;9.936;2022-08-18T00:31:32;27.83;;;15.20;;
47960;SDS011;33721;48.852;9.936;2022-08-18T00:33:58;23.83;;;14.43;;
47960;SDS011;33721;48.852;9.936;2022-08-18T00:36:24;25.42;;;14.65;;
47960;SDS011;33721;48.852;9.936;2022-08-18T00:38:50;21.67;;;13.18;;
47960;SDS011;33721;48.852;9.936;2022-08-18T00:41:17;23.55;;;15.30;;
47960;SDS011;33721;48.852;9.936;2022-08-18T00:43:44;23.88;;;14.52;;
47960;SDS011;33721;48.852;9.936;2022-08-18T00:46:16;21.38;;;13.45;;
47960;SDS011;33721;48.852;9.936;2022-08-18T00:48:47;21.50;;;14.00;;
47960;SDS011;33721;48.852;9.936;2022-08-18T00:51:58;22.17;;;14.18;;
47960;SDS011;33721;48.852;9.936;2022-08-18T00:54:14;21.63;;;14.48;;
47960;SDS011;33721;48.852;9.936;2022-08-18T00:56:47;21.75;;;13.63;;
47960;SDS011;33721;48.852;9.936;2022-08-18T01:04:49;26.10;;;14.27;;
47960;SDS011;33721;48.852;9.936;2022-08-18T01:07:20;21.85;;;13.02;;
47960;SDS011;33721;48.852;9.936;2022-08-18T01:09:54;19.85;;;13.70;;
47960;SDS011;33721;48.852;9.936;2022-08-18T01:14:51;22.48;;;14.75;;
47960;SDS011;33721;48.852;9.936;2022-08-18T01:17:18;25.75;;;15.50;;
47960;SDS011;33721;48.852;9.936;2022-08-18T01:20:02;28.10;;;15.80;;
47960;SDS011;33721;48.852;9.936;2022-08-18T01:25:16;30.83;;;15.80;;
47960;SDS011;33721;48.852;9.936;2022-08-18T01:28:04;22.60;;;14.32;;
47960;SDS011;33721;48.852;9.936;2022-08-18T01:30:30;26.70;;;15.82;;
47960;SDS011;33721;48.852;9.936;2022-08-18T01:32:59;28.33;;;17.08;;
47960;SDS011;33721;48.852;9.936;2022-08-18T01:35:25;23.13;;;15.10;;
47960;SDS011;33721;48.852;9.936;2022-08-18T01:37:52;23.73;;;16.02;;
47960;SDS011;33721;48.852;9.936;2022-08-18T01:40:19;25.00;;;16.40;;
47960;SDS011;33721;48.852;9.936;2022-08-18T01:42:46;28.92;;;18.50;;
47960;SDS011;33721;48.852;9.936;2022-08-18T01:45:13;26.77;;;16.77;;
47960;SDS011;33721;48.852;9.936;2022-08-18T01:47:41;33.00;;;18.50;;
47960;SDS011;33721;48.852;9.936;2022-08-18T01:50:07;26.75;;;17.90;;
47960;SDS011;33721;48.852;9.936;2022-08-18T01:52:35;35.33;;;18.98;;
47960;SDS011;33721;48.852;9.936;2022-08-18T01:55:01;25.42;;;18.00;;
47960;SDS011;33721;48.852;9.936;2022-08-18T01:57:28;31.23;;;18.67;;
47960;SDS011;33721;48.852;9.936;2022-08-18T01:59:54;33.47;;;18.08;;
47960;SDS011;33721;48.852;9.936;2022-08-18T02:02:24;31.73;;;19.35;;
47960;SDS011;33721;48.852;9.936;2022-08-18T02:04:52;27.63;;;17.90;;
47960;SDS011;33721;48.852;9.936;2022-08-18T02:07:23;29.27;;;18.60;;
47960;SDS011;33721;48.852;9.936;2022-08-18T02:09:49;32.10;;;18.50;;
47960;SDS011;33721;48.852;9.936;2022-08-18T02:12:14;29.63;;;18.27;;
47960;SDS011;33721;48.852;9.936;2022-08-18T02:14:40;28.08;;;17.67;;
47960;SDS011;33721;48.852;9.936;2022-08-18T02:17:08;27.13;;;18.08;;
47960;SDS011;33721;48.852;9.936;2022-08-18T02:19:36;26.55;;;16.92;;
47960;SDS011;33721;48.852;9.936;2022-08-18T02:22:07;30.30;;;17.30;;
47960;SDS011;33721;48.852;9.936;2022-08-18T02:24:35;30.98;;;17.52;;
47960;SDS011;33721;48.852;9.936;2022-08-18T02:27:01;31.08;;;18.65;;
47960;SDS011;33721;48.852;9.936;2022-08-18T02:29:27;26.05;;;17.17;;
47960;SDS011;33721;48.852;9.936;2022-08-18T02:31:53;28.73;;;17.98;;
47960;SDS011;33721;48.852;9.936;2022-08-18T02:34:18;30.10;;;18.77;;
47960;SDS011;33721;48.852;9.936;2022-08-18T02:36:44;26.52;;;17.40;;
47960;SDS011;33721;48.852;9.936;2022-08-18T02:39:10;30.05;;;18.25;;
47960;SDS011;33721;48.852;9.936;2022-08-18T02:41:35;32.45;;;17.83;;
47960;SDS011;33721;48.852;9.936;2022-08-18T02:44:01;27.42;;;17.80;;
47960;SDS011;33721;48.852;9.936;2022-08-18T02:46:28;30.80;;;19.58;;
47960;SDS011;33721;48.852;9.936;2022-08-18T02:48:54;31.88;;;18.70;;
47960;SDS011;33721;48.852;9.936;2022-08-18T02:51:20;29.13;;;17.48;;
47960;SDS011;33721;48.852;9.936;2022-08-18T02:53:46;26.20;;;18.17;;
47960;SDS011;33721;48.852;9.936;2022-08-18T02:56:14;30.27;;;18.48;;
47960;SDS011;33721;48.852;9.936;2022-08-18T02:58:49;33.40;;;18.27;;
47960;SDS011;33721;48.852;9.936;2022-08-18T03:01:17;31.52;;;19.75;;
47960;SDS011;33721;48.852;9.936;2022-08-18T03:03:47;34.33;;;19.50;;
47960;SDS011;33721;48.852;9.936;2022-08-18T03:06:14;26.50;;;17.40;;
47960;SDS011;33721;48.852;9.936;2022-08-18T03:08:41;31.52;;;20.67;;
47960;SDS011;33721;48.852;9.936;2022-08-18T03:11:07;36.17;;;21.58;;
47960;SDS011;33721;48.852;9.936;2022-08-18T03:13:33;36.85;;;20.80;;
47960;SDS011;33721;48.852;9.936;2022-08-18T03:15:59;32.47;;;20.98;;
47960;SDS011;33721;48.852;9.936;2022-08-18T03:18:25;38.47;;;22.13;;
47960;SDS011;33721;48.852;9.936;2022-08-18T03:20:50;42.05;;;22.48;;
47960;SDS011;33721;48.852;9.936;2022-08-18T03:23:16;36.50;;;23.55;;
47960;SDS011;33721;48.852;9.936;2022-08-18T03:25:46;41.15;;;24.13;;
47960;SDS011;33721;48.852;9.936;2022-08-18T03:30:39;43.55;;;24.27;;
47960;SDS011;33721;48.852;9.936;2022-08-18T03:33:06;40.88;;;24.17;;
47960;SDS011;33721;48.852;9.936;2022-08-18T03:35:33;43.67;;;26.02;;
47960;SDS011;33721;48.852;9.936;2022-08-18T03:38:00;39.15;;;23.95;;
47960;SDS011;33721;48.852;9.936;2022-08-18T03:40:27;40.47;;;24.92;;
47960;SDS011;33721;48.852;9.936;2022-08-18T03:42:53;44.00;;;24.88;;
47960;SDS011;33721;48.852;9.936;2022-08-18T03:45:19;40.65;;;24.15;;
47960;SDS011;33721;48.852;9.936;2022-08-18T03:47:46;44.67;;;25.13;;
47960;SDS011;33721;48.852;9.936;2022-08-18T03:50:15;42.42;;;25.67;;
47960;SDS011;33721;48.852;9.936;2022-08-18T03:52:40;40.97;;;23.33;;
47960;SDS011;33721;48.852;9.936;2022-08-18T03:55:06;41.25;;;23.85;;
47960;SDS011;33721;48.852;9.936;2022-08-18T03:57:32;40.50;;;24.25;;
47960;SDS011;33721;48.852;9.936;2022-08-18T03:59:58;39.47;;;23.90;;
47960;SDS011;33721;48.852;9.936;2022-08-18T04:02:24;46.15;;;24.50;;
47960;SDS011;33721;48.852;9.936;2022-08-18T04:04:50;39.85;;;24.10;;
47960;SDS011;33721;48.852;9.936;2022-08-18T04:07:16;43.42;;;24.50;;
47960;SDS011;33721;48.852;9.936;2022-08-18T04:09:43;42.40;;;23.67;;
47960;SDS011;33721;48.852;9.936;2022-08-18T04:12:10;41.13;;;24.70;;
47960;SDS011;33721;48.852;9.936;2022-08-18T04:14:38;46.72;;;23.58;;
47960;SDS011;33721;48.852;9.936;2022-08-18T04:17:06;41.83;;;23.60;;
47960;SDS011;33721;48.852;9.936;2022-08-18T04:19:33;38.63;;;23.42;;
47960;SDS011;33721;48.852;9.936;2022-08-18T04:21:59;37.03;;;22.20;;
47960;SDS011;33721;48.852;9.936;2022-08-18T04:24:27;35.05;;;21.63;;
47960;SDS011;33721;48.852;9.936;2022-08-18T04:26:54;37.78;;;21.35;;
47960;SDS011;33721;48.852;9.936;2022-08-18T04:29:22;34.28;;;20.55;;
47960;SDS011;33721;48.852;9.936;2022-08-18T04:31:48;31.02;;;19.98;;
47960;SDS011;33721;48.852;9.936;2022-08-18T04:34:15;35.80;;;20.92;;
47960;SDS011;33721;48.852;9.936;2022-08-18T04:36:42;32.08;;;19.95;;
47960;SDS011;33721;48.852;9.936;2022-08-18T04:39:09;34.83;;;20.88;;
47960;SDS011;33721;48.852;9.936;2022-08-18T04:41:36;33.72;;;20.20;;
47960;SDS011;33721;48.852;9.936;2022-08-18T04:44:04;35.35;;;21.20;;
47960;SDS011;33721;48.852;9.936;2022-08-18T04:46:36;37.45;;;21.73;;
47960;SDS011;33721;48.852;9.936;2022-08-18T04:49:08;36.58;;;21.73;;
47960;SDS011;33721;48.852;9.936;2022-08-18T04:51:34;37.15;;;21.75;;
47960;SDS011;33721;48.852;9.936;2022-08-18T04:54:03;32.90;;;21.05;;
47960;SDS011;33721;48.852;9.936;2022-08-18T04:56:30;36.20;;;22.42;;
47960;SDS011;33721;48.852;9.936;2022-08-18T05:01:25;38.72;;;22.77;;
47960;SDS011;33721;48.852;9.936;2022-08-18T05:03:55;40.65;;;23.02;;
47960;SDS011;33721;48.852;9.936;2022-08-18T05:06:23;39.50;;;23.90;;
47960;SDS011;33721;48.852;9.936;2022-08-18T05:08:54;40.72;;;24.02;;
47960;SDS011;33721;48.852;9.936;2022-08-18T05:11:26;39.55;;;23.83;;
47960;SDS011;33721;48.852;9.936;2022-08-18T05:13:52;40.85;;;23.52;;
47960;SDS011;33721;48.852;9.936;2022-08-18T05:16:22;41.33;;;21.60;;
47960;SDS011;33721;48.852;9.936;2022-08-18T05:18:49;37.95;;;23.38;;
47960;SDS011;33721;48.852;9.936;2022-08-18T05:21:17;39.65;;;21.80;;
47960;SDS011;33721;48.852;9.936;2022-08-18T05:23:45;36.47;;;21.55;;
47960;SDS011;33721;48.852;9.936;2022-08-18T05:26:12;31.23;;;20.05;;
47960;SDS011;33721;48.852;9.936;2022-08-18T05:28:39;32.75;;;19.70;;
47960;SDS011;33721;48.852;9.936;2022-08-18T05:31:10;32.55;;;19.65;;
47960;SDS011;33721;48.852;9.936;2022-08-18T05:33:44;31.85;;;19.50;;
47960;SDS011;33721;48.852;9.936;2022-08-18T05:39:37;29.10;;;17.65;;
47960;SDS011;33721;48.852;9.936;2022-08-18T05:42:15;26.40;;;16.45;;
47960;SDS011;33721;48.852;9.936;2022-08-18T05:44:48;28.15;;;17.77;;
47960;SDS011;33721;48.852;9.936;2022-08-18T05:49:48;23.90;;;15.93;;
47960;SDS011;33721;48.852;9.936;2022-08-18T05:54:53;28.40;;;17.83;;
47960;SDS011;33721;48.852;9.936;2022-08-18T05:57:43;27.95;;;16.67;;
47960;SDS011;33721;48.852;9.936;2022-08-18T06:00:17;31.02;;;17.30;;
47960;SDS011;33721;48.852;9.936;2022-08-18T06:02:55;26.77;;;16.63;;
47960;SDS011;33721;48.852;9.936;2022-08-18T06:06:07;25.95;;;16.02;;
47960;SDS011;33721;48.852;9.936;2022-08-18T06:08:40;30.70;;;16.77;;
47960;SDS011;33721;48.852;9.936;2022-08-18T06:11:30;30.67;;;17.92;;
47960;SDS011;33721;48.852;9.936;2022-08-18T06:13:56;29.67;;;17.48;;
47960;SDS011;33721;48.852;9.936;2022-08-18T06:16:27;26.90;;;17.00;;
47960;SDS011;33721;48.852;9.936;2022-08-18T06:27:13;29.42;;;16.98;;
47960;SDS011;33721;48.852;9.936;2022-08-18T06:35:34;29.48;;;18.92;;
47960;SDS011;33721;48.852;9.936;2022-08-18T06:38:06;32.65;;;19.55;;
47960;SDS011;33721;48.852;9.936;2022-08-18T06:41:13;33.83;;;19.02;;
47960;SDS011;33721;48.852;9.936;2022-08-18T06:43:58;33.35;;;19.63;;
47960;SDS011;33721;48.852;9.936;2022-08-18T06:49:20;33.60;;;20.52;;
47960;SDS011;33721;48.852;9.936;2022-08-18T06:52:16;31.98;;;19.42;;
47960;SDS011;33721;48.852;9.936;2022-08-18T06:54:47;29.20;;;17.88;;
47960;SDS011;33721;48.852;9.936;2022-08-18T06:57:27;27.63;;;17.77;;
47960;SDS011;33721;48.852;9.936;2022-08-18T07:00:05;31.10;;;17.75;;
47960;SDS011;33721;48.852;9.936;2022-08-18T07:07:39;29.23;;;16.08;;
47960;SDS011;33721;48.852;9.936;2022-08-18T07:12:40;22.88;;;14.20;;
47960;SDS011;33721;48.852;9.936;2022-08-18T07:15:06;24.80;;;14.68;;
47960;SDS011;33721;48.852;9.936;2022-08-18T07:17:36;25.65;;;14.52;;
47960;SDS011;33721;48.852;9.936;2022-08-18T07:20:05;24.65;;;14.55;;
47960;SDS011;33721;48.852;9.936;2022-08-18T07:22:50;23.55;;;14.63;;
47960;SDS011;33721;48.852;9.936;2022-08-18T07:25:30;22.95;;;14.95;;
47960;SDS011;33721;48.852;9.936;2022-08-18T07:28:05;22.08;;;14.32;;
47960;SDS011;33721;48.852;9.936;2022-08-18T07:30:33;22.17;;;14.18;;
47960;SDS011;33721;48.852;9.936;2022-08-18T07:35:35;24.85;;;14.27;;
47960;SDS011;33721;48.852;9.936;2022-08-18T07:38:13;22.73;;;14.23;;
47960;SDS011;33721;48.852;9.936;2022-08-18T07:40:50;20.13;;;13.15;;
47960;SDS011;33721;48.852;9.936;2022-08-18T07:46:00;21.23;;;13.77;;
47960;SDS011;33721;48.852;9.936;2022-08-18T07:48:31;24.75;;;14.80;;
47960;SDS011;33721;48.852;9.936;2022-08-18T07:53:37;25.58;;;14.25;;
47960;SDS011;33721;48.852;9.936;2022-08-18T07:56:22;19.13;;;13.23;;
47960;SDS011;33721;48.852;9.936;2022-08-18T08:01:59;25.92;;;15.25;;
47960;SDS011;33721;48.852;9.936;2022-08-18T08:07:42;25.10;;;14.85;;
47960;SDS011;33721;48.852;9.936;2022-08-18T08:15:45;25.50;;;14.43;;
47960;SDS011;33721;48.852;9.936;2022-08-18T08:18:22;21.55;;;13.88;;
47960;SDS011;33721;48.852;9.936;2022-08-18T08:21:14;20.85;;;14.30;;
47960;SDS011;33721;48.852;9.936;2022-08-18T08:26:47;23.35;;;13.38;;
47960;SDS011;33721;48.852;9.936;2022-08-18T08:32:33;21.45;;;14.23;;
47960;SDS011;33721;48.852;9.936;2022-08-18T08:35:10;25.67;;;14.70;;
47960;SDS011;33721;48.852;9.936;2022-08-18T08:40:42;23.05;;;14.65;;
47960;SDS011;33721;48.852;9.936;2022-08-18T08:43:33;22.25;;;14.25;;
47960;SDS011;33721;48.852;9.936;2022-08-18T08:48:49;23.02;;;14.85;;
47960;SDS011;33721;48.852;9.936;2022-08-18T08:51:32;24.02;;;14.05;;
47960;SDS011;33721;48.852;9.936;2022-08-18T08:54:29;23.35;;;14.07;;
47960;SDS011;33721;48.852;9.936;2022-08-18T08:57:03;18.83;;;12.98;;
47960;SDS011;33721;48.852;9.936;2022-08-18T08:59:29;22.38;;;13.85;;
47960;SDS011;33721;48.852;9.936;2022-08-18T09:07:24;24.08;;;14.82;;
47960;SDS011;33721;48.852;9.936;2022-08-18T09:24:02;20.13;;;12.90;;
47960;SDS011;33721;48.852;9.936;2022-08-18T09:29:14;20.85;;;13.40;;
47960;SDS011;33721;48.852;9.936;2022-08-18T09:40:56;19.17;;;12.45;;
47960;SDS011;33721;48.852;9.936;2022-08-18T09:44:07;19.58;;;12.77;;
47960;SDS011;33721;48.852;9.936;2022-08-18T09:51:52;18.45;;;13.27;;
47960;SDS011;33721;48.852;9.936;2022-08-18T09:54:23;19.65;;;13.50;;
47960;SDS011;33721;48.852;9.936;2022-08-18T10:01:59;18.08;;;13.18;;
47960;SDS011;33721;48.852;9.936;2022-08-18T10:06:52;21.65;;;14.02;;
47960;SDS011;33721;48.852;9.936;2022-08-18T10:19:34;20.90;;;13.98;;
47960;SDS011;33721;48.852;9.936;2022-08-18T10:22:03;22.23;;;14.00;;
47960;SDS011;33721;48.852;9.936;2022-08-18T10:24:33;21.42;;;14.63;;
47960;SDS011;33721;48.852;9.936;2022-08-18T10:27:06;19.60;;;13.48;;
47960;SDS011;33721;48.852;9.936;2022-08-18T10:29:47;21.42;;;14.18;;
47960;SDS011;33721;48.852;9.936;2022-08-18T10:32:17;25.25;;;15.25;;
47960;SDS011;33721;48.852;9.936;2022-08-18T10:34:48;20.02;;;14.38;;
47960;SDS011;33721;48.852;9.936;2022-08-18T10:37:35;23.08;;;14.07;;
47960;SDS011;33721;48.852;9.936;2022-08-18T10:45:22;23.50;;;15.20;;
47960;SDS011;33721;48.852;9.936;2022-08-18T10:48:07;25.80;;;14.77;;
47960;SDS011;33721;48.852;9.936;2022-08-18T10:50:51;20.50;;;13.65;;
47960;SDS011;33721;48.852;9.936;2022-08-18T10:56:27;24.02;;;14.32;;
47960;SDS011;33721;48.852;9.936;2022-08-18T10:59:20;21.70;;;13.70;;
47960;SDS011;33721;48.852;9.936;2022-08-18T11:02:08;25.52;;;14.70;;
47960;SDS011;33721;48.852;9.936;2022-08-18T11:04:50;21.67;;;14.70;;
47960;SDS011;33721;48.852;9.936;2022-08-18T11:07:18;24.33;;;15.13;;
47960;SDS011;33721;48.852;9.936;2022-08-18T11:09:50;26.08;;;14.63;;
47960;SDS011;33721;48.852;9.936;2022-08-18T11:13:06;17.48;;;12.45;;
47960;SDS011;33721;48.852;9.936;2022-08-18T11:15:09;20.58;;;13.23;;
47960;SDS011;33721;48.852;9.936;2022-08-18T11:20:25;22.98;;;14.75;;
47960;SDS011;33721;48.852;9.936;2022-08-18T11:22:55;22.08;;;14.13;;
47960;SDS011;33721;48.852;9.936;2022-08-18T11:25:31;19.87;;;14.70;;
47960;SDS011;33721;48.852;9.936;2022-08-18T11:27:59;22.35;;;14.57;;
47960;SDS011;33721;48.852;9.936;2022-08-18T11:30:27;21.38;;;13.93;;
47960;SDS011;33721;48.852;9.936;2022-08-18T11:32:56;18.70;;;14.13;;
47960;SDS011;33721;48.852;9.936;2022-08-18T11:35:26;19.05;;;13.45;;
47960;SDS011;33721;48.852;9.936;2022-08-18T11:38:02;18.23;;;13.63;;
47960;SDS011;33721;48.852;9.936;2022-08-18T11:45:32;18.90;;;11.90;;
47960;SDS011;33721;48.852;9.936;2022-08-18T11:48:18;22.90;;;13.98;;
47960;SDS011;33721;48.852;9.936;2022-08-18T11:53:34;15.98;;;12.05;;
47960;SDS011;33721;48.852;9.936;2022-08-18T11:56:23;15.60;;;12.40;;
47960;SDS011;33721;48.852;9.936;2022-08-18T11:58:59;18.88;;;11.93;;
47960;SDS011;33721;48.852;9.936;2022-08-18T12:07:10;15.13;;;10.52;;
47960;SDS011;33721;48.852;9.936;2022-08-18T12:12:23;15.60;;;11.20;;
47960;SDS011;33721;48.852;9.936;2022-08-18T12:17:25;14.77;;;10.68;;
47960;SDS011;33721;48.852;9.936;2022-08-18T12:19:51;16.33;;;11.50;;
47960;SDS011;33721;48.852;9.936;2022-08-18T12:22:21;14.95;;;11.05;;
47960;SDS011;33721;48.852;9.936;2022-08-18T12:24:52;15.52;;;11.05;;
47960;SDS011;33721;48.852;9.936;2022-08-18T12:27:19;15.02;;;10.90;;
47960;SDS011;33721;48.852;9.936;2022-08-18T12:29:50;13.52;;;10.45;;
47960;SDS011;33721;48.852;9.936;2022-08-18T12:32:18;14.05;;;10.90;;
47960;SDS011;33721;48.852;9.936;2022-08-18T12:34:47;13.65;;;10.48;;
47960;SDS011;33721;48.852;9.936;2022-08-18T12:37:15;12.25;;;9.88;;
47960;SDS011;33721;48.852;9.936;2022-08-18T12:39:46;13.05;;;10.70;;
47960;SDS011;33721;48.852;9.936;2022-08-18T12:42:11;14.38;;;10.77;;
47960;SDS011;33721;48.852;9.936;2022-08-18T12:44:37;14.30;;;10.27;;
47960;SDS011;33721;48.852;9.936;2022-08-18T12:47:15;13.63;;;9.48;;
47960;SDS011;33721;48.852;9.936;2022-08-18T12:49:49;14.98;;;10.00;;
47960;SDS011;33721;48.852;9.936;2022-08-18T12:52:16;15.45;;;10.73;;
47960;SDS011;33721;48.852;9.936;2022-08-18T12:54:42;21.48;;;10.68;;
47960;SDS011;33721;48.852;9.936;2022-08-18T12:57:13;13.95;;;10.55;;
47960;SDS011;33721;48.852;9.936;2022-08-18T12:59:47;20.13;;;10.73;;
47960;SDS011;33721;48.852;9.936;2022-08-18T13:02:12;11.70;;;9.15;;
47960;SDS011;33721;48.852;9.936;2022-08-18T13:04:38;20.17;;;10.77;;
47960;SDS011;33721;48.852;9.936;2022-08-18T13:07:04;15.20;;;10.68;;
47960;SDS011;33721;48.852;9.936;2022-08-18T13:09:32;14.55;;;10.68;;
47960;SDS011;33721;48.852;9.936;2022-08-18T13:11:59;13.80;;;10.95;;
47960;SDS011;33721;48.852;9.936;2022-08-18T13:14:24;14.05;;;9.93;;
47960;SDS011;33721;48.852;9.936;2022-08-18T13:16:50;14.63;;;10.55;;
47960;SDS011;33721;48.852;9.936;2022-08-18T13:19:17;14.35;;;10.10;;
47960;SDS011;33721;48.852;9.936;2022-08-18T13:21:42;17.38;;;11.25;;
47960;SDS011;33721;48.852;9.936;2022-08-18T13:24:08;18.52;;;11.18;;
47960;SDS011;33721;48.852;9.936;2022-08-18T13:26:35;15.57;;;10.95;;
47960;SDS011;33721;48.852;9.936;2022-08-18T13:29:05;14.70;;;11.73;;
47960;SDS011;33721;48.852;9.936;2022-08-18T13:31:31;17.17;;;11.50;;
47960;SDS011;33721;48.852;9.936;2022-08-18T13:33:57;18.02;;;10.43;;
47960;SDS011;33721;48.852;9.936;2022-08-18T13:36:23;13.40;;;10.77;;
47960;SDS011;33721;48.852;9.936;2022-08-18T13:38:51;13.30;;;9.52;;
47960;SDS011;33721;48.852;9.936;2022-08-18T13:41:18;13.27;;;10.00;;
47960;SDS011;33721;48.852;9.936;2022-08-18T13:43:48;15.55;;;10.30;;
47960;SDS011;33721;48.852;9.936;2022-08-18T13:46:14;11.93;;;9.70;;
47960;SDS011;33721;48.852;9.936;2022-08-18T13:48:42;12.25;;;9.90;;
47960;SDS011;33721;48.852;9.936;2022-08-18T13:51:11;16.20;;;10.57;;
47960;SDS011;33721;48.852;9.936;2022-08-18T13:53:43;13.52;;;10.18;;
47960;SDS011;33721;48.852;9.936;2022-08-18T13:56:09;14.30;;;10.07;;
47960;SDS011;33721;48.852;9.936;2022-08-18T13:58:35;17.60;;;10.32;;
47960;SDS011;33721;48.852;9.936;2022-08-18T14:01:03;15.32;;;9.95;;
47960;SDS011;33721;48.852;9.936;2022-08-18T14:03:35;14.30;;;10.15;;
47960;SDS011;33721;48.852;9.936;2022-08-18T14:06:01;12.63;;;10.32;;
47960;SDS011;33721;48.852;9.936;2022-08-18T14:08:28;16.60;;;10.60;;
47960;SDS011;33721;48.852;9.936;2022-08-18T14:10:56;12.93;;;9.35;;
47960;SDS011;33721;48.852;9.936;2022-08-18T14:13:24;18.58;;;9.10;;
47960;SDS011;33721;48.852;9.936;2022-08-18T14:15:51;14.98;;;9.27;;
47960;SDS011;33721;48.852;9.936;2022-08-18T14:18:19;11.95;;;8.77;;
47960;SDS011;33721;48.852;9.936;2022-08-18T14:20:45;10.55;;;9.13;;
47960;SDS011;33721;48.852;9.936;2022-08-18T14:23:29;14.60;;;9.25;;
47960;SDS011;33721;48.852;9.936;2022-08-18T14:26:29;15.10;;;9.10;;
47960;SDS011;33721;48.852;9.936;2022-08-18T14:29:15;14.32;;;10.07;;
47960;SDS011;33721;48.852;9.936;2022-08-18T14:31:41;13.70;;;9.30;;
47960;SDS011;33721;48.852;9.936;2022-08-18T14:34:07;11.52;;;9.50;;
47960;SDS011;33721;48.852;9.936;2022-08-18T14:36:33;14.05;;;9.82;;
47960;SDS011;33721;48.852;9.936;2022-08-18T14:38:59;13.60;;;9.63;;
47960;SDS011;33721;48.852;9.936;2022-08-18T14:41:26;13.48;;;10.00;;
47960;SDS011;33721;48.852;9.936;2022-08-18T14:43:52;14.48;;;9.82;;
47960;SDS011;33721;48.852;9.936;2022-08-18T14:46:20;12.52;;;9.85;;
47960;SDS011;33721;48.852;9.936;2022-08-18T14:48:46;14.15;;;9.85;;
47960;SDS011;33721;48.852;9.936;2022-08-18T14:51:12;12.65;;;9.45;;
47960;SDS011;33721;48.852;9.936;2022-08-18T14:53:38;15.88;;;9.70;;
47960;SDS011;33721;48.852;9.936;2022-08-18T14:56:05;15.68;;;10.10;;
47960;SDS011;33721;48.852;9.936;2022-08-18T14:58:36;14.35;;;10.18;;
47960;SDS011;33721;48.852;9.936;2022-08-18T15:01:05;12.38;;;9.23;;
47960;SDS011;33721;48.852;9.936;2022-08-18T15:03:33;17.80;;;9.77;;
47960;SDS011;33721;48.852;9.936;2022-08-18T15:06:00;12.15;;;9.93;;
47960;SDS011;33721;48.852;9.936;2022-08-18T15:08:27;12.02;;;9.25;;
47960;SDS011;33721;48.852;9.936;2022-08-18T15:10:54;12.85;;;9.93;;
47960;SDS011;33721;48.852;9.936;2022-08-18T15:13:21;12.77;;;9.38;;
47960;SDS011;33721;48.852;9.936;2022-08-18T15:15:48;13.25;;;9.68;;
47960;SDS011;33721;48.852;9.936;2022-08-18T15:18:14;13.55;;;9.60;;
47960;SDS011;33721;48.852;9.936;2022-08-18T15:20:40;11.98;;;9.70;;
47960;SDS011;33721;48.852;9.936;2022-08-18T15:23:24;14.88;;;9.60;;
47960;SDS011;33721;48.852;9.936;2022-08-18T15:26:09;10.93;;;8.93;;
47960;SDS011;33721;48.852;9.936;2022-08-18T15:28:35;13.20;;;9.73;;
47960;SDS011;33721;48.852;9.936;2022-08-18T15:31:02;15.27;;;9.80;;
47960;SDS011;33721;48.852;9.936;2022-08-18T15:33:28;14.02;;;9.40;;
47960;SDS011;33721;48.852;9.936;2022-08-18T15:35:53;13.35;;;9.82;;
47960;SDS011;33721;48.852;9.936;2022-08-18T15:38:20;12.75;;;9.50;;
47960;SDS011;33721;48.852;9.936;2022-08-18T15:40:52;12.93;;;9.40;;
47960;SDS011;33721;48.852;9.936;2022-08-18T15:43:19;11.82;;;9.85;;
47960;SDS011;33721;48.852;9.936;2022-08-18T15:45:45;12.77;;;9.32;;
47960;SDS011;33721;48.852;9.936;2022-08-18T15:48:14;18.05;;;9.50;;
47960;SDS011;33721;48.852;9.936;2022-08-18T15:50:42;13.45;;;9.98;;
47960;SDS011;33721;48.852;9.936;2022-08-18T15:53:11;14.60;;;9.93;;
47960;SDS011;33721;48.852;9.936;2022-08-18T15:55:38;14.32;;;9.90;;
47960;SDS011;33721;48.852;9.936;2022-08-18T15:58:04;11.25;;;9.52;;
47960;SDS011;33721;48.852;9.936;2022-08-18T16:00:31;13.70;;;10.00;;
47960;SDS011;33721;48.852;9.936;2022-08-18T16:02:59;13.35;;;10.20;;
47960;SDS011;33721;48.852;9.936;2022-08-18T16:05:29;12.93;;;9.60;;
47960;SDS011;33721;48.852;9.936;2022-08-18T16:07:57;14.35;;;9.43;;
47960;SDS011;33721;48.852;9.936;2022-08-18T16:10:26;12.77;;;10.27;;
47960;SDS011;33721;48.852;9.936;2022-08-18T16:12:55;15.13;;;10.32;;
47960;SDS011;33721;48.852;9.936;2022-08-18T16:15:22;16.02;;;10.18;;
47960;SDS011;33721;48.852;9.936;2022-08-18T16:17:50;15.25;;;9.45;;
47960;SDS011;33721;48.852;9.936;2022-08-18T16:20:17;13.60;;;9.77;;
47960;SDS011;33721;48.852;9.936;2022-08-18T16:22:44;13.13;;;10.15;;
47960;SDS011;33721;48.852;9.936;2022-08-18T16:25:11;15.57;;;9.98;;
47960;SDS011;33721;48.852;9.936;2022-08-18T16:27:38;14.15;;;9.70;;
47960;SDS011;33721;48.852;9.936;2022-08-18T16:30:08;12.40;;;9.75;;
47960;SDS011;33721;48.852;9.936;2022-08-18T16:32:36;14.93;;;10.07;;
47960;SDS011;33721;48.852;9.936;2022-08-18T16:35:02;14.18;;;10.05;;
47960;SDS011;33721;48.852;9.936;2022-08-18T16:37:29;14.52;;;9.82;;
47960;SDS011;33721;48.852;9.936;2022-08-18T16:39:55;18.17;;;10.63;;
47960;SDS011;33721;48.852;9.936;2022-08-18T16:42:20;15.63;;;10.35;;
47960;SDS011;33721;48.852;9.936;2022-08-18T16:44:46;17.67;;;9.82;;
47960;SDS011;33721;48.852;9.936;2022-08-18T16:47:12;21.83;;;10.30;;
47960;SDS011;33721;48.852;9.936;2022-08-18T16:49:41;18.30;;;10.43;;
47960;SDS011;33721;48.852;9.936;2022-08-18T16:52:12;15.25;;;9.82;;
47960;SDS011;33721;48.852;9.936;2022-08-18T16:54:39;13.65;;;9.77;;
47960;SDS011;33721;48.852;9.936;2022-08-18T16:57:05;19.33;;;10.43;;
47960;SDS011;33721;48.852;9.936;2022-08-18T16:59:31;21.60;;;9.80;;
47960;SDS011;33721;48.852;9.936;2022-08-18T17:02:15;15.25;;;9.82;;
47960;SDS011;33721;48.852;9.936;2022-08-18T17:05:02;13.18;;;10.30;;
47960;SDS011;33721;48.852;9.936;2022-08-18T17:07:28;14.55;;;9.93;;
47960;SDS011;33721;48.852;9.936;2022-08-18T17:09:55;14.13;;;10.07;;
47960;SDS011;33721;48.852;9.936;2022-08-18T17:12:22;15.18;;;10.35;;
47960;SDS011;33721;48.852;9.936;2022-08-18T17:14:49;14.30;;;9.60;;
47960;SDS011;33721;48.852;9.936;2022-08-18T17:17:14;12.57;;;9.70;;
47960;SDS011;33721;48.852;9.936;2022-08-18T17:19:44;19.55;;;10.40;;
47960;SDS011;33721;48.852;9.936;2022-08-18T17:22:11;14.43;;;10.75;;
47960;SDS011;33721;48.852;9.936;2022-08-18T17:24:37;15.88;;;11.32;;
47960;SDS011;33721;48.852;9.936;2022-08-18T17:27:05;13.65;;;10.38;;